Time;durP1;ratioP1;P1;durP2;ratioP2;P2;SDS_P1;SDS_P2;PMS_P1;PMS_P2;Temp;Humidity;BMP_temperature;BMP_pressure;BME280_temperature;BME280_humidity;BME280_pressure;Samples;Min_cycle;Max_cycle;Signal;HPM_P1;HPM_P2
2020/12/05 00:01:05;;;;;;;4.65;4.35;;;;;;;;;;5005323;28;20927;-65
2020/12/05 00:03:31;;;;;;;6.28;4.30;;;;;;;;;;5002497;28;20205;-61
2020/12/05 00:05:57;;;;;;;9.15;7.28;;;;;;;;;;5002030;28;20272;-63
2020/12/05 00:08:23;;;;;;;2.93;2.73;;;;;;;;;;5003692;28;20178;-64
2020/12/05 00:10:50;;;;;;;4.00;3.80;;;;;;;;;;5003207;28;20465;-64
2020/12/05 00:13:16;;;;;;;6.03;5.45;;;;;;;;;;5003390;28;20232;-65
2020/12/05 00:15:42;;;;;;;5.18;4.85;;;;;;;;;;4994243;28;20182;-66
2020/12/05 00:18:09;;;;;;;4.10;3.80;;;;;;;;;;5006563;28;20182;-63
2020/12/05 00:20:35;;;;;;;4.50;4.07;;;;;;;;;;5012887;28;20650;-65
2020/12/05 00:23:01;;;;;;;4.43;4.13;;;;;;;;;;5013493;28;20552;-65
2020/12/05 00:25:27;;;;;;;2.25;2.15;;;;;;;;;;5013427;28;20205;-65
2020/12/05 00:27:53;;;;;;;3.03;2.92;;;;;;;;;;5012890;28;20204;-62
2020/12/05 00:30:18;;;;;;;3.03;2.93;;;;;;;;;;5012838;28;20556;-65
2020/12/05 00:32:45;;;;;;;3.90;3.67;;;;;;;;;;5011365;28;20483;-66
2020/12/05 00:35:10;;;;;;;4.43;4.05;;;;;;;;;;5011578;28;20177;-65
2020/12/05 00:37:36;;;;;;;4.83;4.60;;;;;;;;;;5012945;28;20600;-65
2020/12/05 00:40:03;;;;;;;4.43;4.13;;;;;;;;;;5011321;28;20405;-65
2020/12/05 00:42:29;;;;;;;5.78;5.22;;;;;;;;;;5012456;28;20543;-66
2020/12/05 00:44:55;;;;;;;4.70;4.18;;;;;;;;;;5012358;28;20162;-66
2020/12/05 00:47:21;;;;;;;3.72;3.63;;;;;;;;;;5013084;28;20189;-66
2020/12/05 00:49:47;;;;;;;2.65;1.73;;;;;;;;;;5012169;28;20224;-66
2020/12/05 00:52:13;;;;;;;4.33;4.03;;;;;;;;;;5013046;28;20711;-63
2020/12/05 00:54:39;;;;;;;3.73;3.63;;;;;;;;;;5004063;28;20472;-65
2020/12/05 00:57:05;;;;;;;4.38;4.03;;;;;;;;;;4991832;28;20460;-66
2020/12/05 00:59:31;;;;;;;2.65;2.45;;;;;;;;;;4994229;28;20214;-65
2020/12/05 01:01:57;;;;;;;3.50;3.20;;;;;;;;;;5005983;28;20181;-64
2020/12/05 01:04:23;;;;;;;2.70;2.10;;;;;;;;;;5002606;28;20205;-65
2020/12/05 01:06:49;;;;;;;5.22;4.72;;;;;;;;;;5001613;28;20277;-65
2020/12/05 01:09:16;;;;;;;5.07;3.60;;;;;;;;;;5003398;28;20206;-66
2020/12/05 01:11:42;;;;;;;2.30;2.20;;;;;;;;;;5002638;28;20201;-65
2020/12/05 01:14:08;;;;;;;3.70;3.42;;;;;;;;;;5003311;28;20654;-65
2020/12/05 01:16:34;;;;;;;10.02;4.28;;;;;;;;;;5001278;28;20277;-65
2020/12/05 01:19:00;;;;;;;2.47;2.38;;;;;;;;;;5000975;28;20270;-65
2020/12/05 01:21:26;;;;;;;5.32;4.80;;;;;;;;;;5002689;28;20182;-65
2020/12/05 01:23:52;;;;;;;3.57;3.47;;;;;;;;;;5001095;28;20190;-65
2020/12/05 01:26:21;;;;;;;4.22;4.03;;;;;;;;;;5002947;28;20514;-65
2020/12/05 01:28:47;;;;;;;3.28;2.88;;;;;;;;;;5003140;28;20185;-64
2020/12/05 01:31:13;;;;;;;2.38;2.28;;;;;;;;;;5001037;28;20171;-66
2020/12/05 01:33:40;;;;;;;2.50;2.40;;;;;;;;;;5001264;28;20658;-65
2020/12/05 01:36:06;;;;;;;6.32;2.88;;;;;;;;;;5001369;28;20586;-64
2020/12/05 01:38:32;;;;;;;4.72;4.47;;;;;;;;;;5000668;28;20187;-63
2020/12/05 01:40:58;;;;;;;2.55;2.40;;;;;;;;;;5001422;28;20182;-64
2020/12/05 01:43:29;;;;;;;1.77;1.70;;;;;;;;;;5001462;28;20209;-65
2020/12/05 01:45:55;;;;;;;3.30;3.10;;;;;;;;;;5002892;28;20578;-65
2020/12/05 01:48:21;;;;;;;2.05;1.92;;;;;;;;;;5001710;28;20645;-64
2020/12/05 01:50:48;;;;;;;3.20;3.00;;;;;;;;;;4999662;28;20185;-64
2020/12/05 01:53:14;;;;;;;0.98;0.98;;;;;;;;;;5001370;28;20174;-64
2020/12/05 01:55:44;;;;;;;1.90;1.80;;;;;;;;;;5001676;28;20178;-63
2020/12/05 01:58:10;;;;;;;5.68;2.55;;;;;;;;;;5002680;28;20193;-64
2020/12/05 02:00:36;;;;;;;3.00;2.90;;;;;;;;;;5036957;23;20312;-64
2020/12/05 02:03:03;;;;;;;2.67;2.60;;;;;;;;;;5011786;28;20229;-64
2020/12/05 02:05:34;;;;;;;3.92;3.63;;;;;;;;;;5011962;28;20604;-63
2020/12/05 02:08:14;;;;;;;4.57;4.22;;;;;;;;;;5012169;28;20171;-62
2020/12/05 02:10:47;;;;;;;1.92;1.83;;;;;;;;;;4997827;28;20204;-63
2020/12/05 02:13:26;;;;;;;3.25;3.05;;;;;;;;;;4992388;28;20210;-63
2020/12/05 02:15:53;;;;;;;0.88;0.88;;;;;;;;;;4992212;28;20166;-63
2020/12/05 02:18:20;;;;;;;3.08;2.60;;;;;;;;;;4992340;28;20182;-63
2020/12/05 02:20:47;;;;;;;2.72;2.53;;;;;;;;;;4992055;28;20256;-63
2020/12/05 02:23:14;;;;;;;1.85;1.75;;;;;;;;;;4992356;28;20176;-63
2020/12/05 02:25:42;;;;;;;2.25;2.15;;;;;;;;;;4990942;28;20260;-64
2020/12/05 02:28:09;;;;;;;1.95;1.90;;;;;;;;;;4992142;28;20174;-64
2020/12/05 02:30:35;;;;;;;2.05;1.95;;;;;;;;;;4990503;28;20191;-64
2020/12/05 02:33:02;;;;;;;2.55;2.28;;;;;;;;;;4992097;28;20175;-64
2020/12/05 02:35:28;;;;;;;1.33;1.33;;;;;;;;;;4990817;28;20230;-63
2020/12/05 02:37:59;;;;;;;1.77;1.67;;;;;;;;;;4992054;28;20205;-64
2020/12/05 02:40:25;;;;;;;2.08;1.98;;;;;;;;;;4990216;28;20289;-64
2020/12/05 02:42:51;;;;;;;2.92;2.83;;;;;;;;;;4992088;28;20261;-64
2020/12/05 02:45:17;;;;;;;1.30;1.20;;;;;;;;;;4991991;28;20186;-63
2020/12/05 02:47:43;;;;;;;3.20;3.00;;;;;;;;;;4992026;28;20406;-64
2020/12/05 02:50:09;;;;;;;3.10;2.90;;;;;;;;;;4991625;28;20190;-64
2020/12/05 02:52:35;;;;;;;2.20;2.05;;;;;;;;;;4991949;28;20221;-63
2020/12/05 02:55:01;;;;;;;1.63;1.52;;;;;;;;;;4991963;28;20642;-63
2020/12/05 02:57:27;;;;;;;1.50;1.40;;;;;;;;;;4991894;28;20203;-63
2020/12/05 02:59:53;;;;;;;1.17;1.17;;;;;;;;;;4991506;28;20221;-66
2020/12/05 03:02:19;;;;;;;2.58;2.45;;;;;;;;;;4992185;28;20939;-63
2020/12/05 03:04:45;;;;;;;3.03;2.85;;;;;;;;;;4992066;28;20538;-64
2020/12/05 03:07:11;;;;;;;1.50;1.48;;;;;;;;;;4992511;28;20205;-64
2020/12/05 03:09:37;;;;;;;1.97;1.87;;;;;;;;;;4994958;28;20202;-64
2020/12/05 03:12:03;;;;;;;1.80;1.70;;;;;;;;;;4994171;28;20885;-64
2020/12/05 03:14:29;;;;;;;3.83;3.55;;;;;;;;;;4995465;28;20405;-64
2020/12/05 03:16:55;;;;;;;2.40;1.70;;;;;;;;;;4995276;28;20197;-63
2020/12/05 03:19:21;;;;;;;3.67;3.37;;;;;;;;;;4994854;28;20198;-63
2020/12/05 03:21:47;;;;;;;2.97;2.78;;;;;;;;;;4995192;28;20406;-63
2020/12/05 03:24:13;;;;;;;2.03;1.92;;;;;;;;;;4995013;28;20182;-63
2020/12/05 03:26:39;;;;;;;1.80;1.70;;;;;;;;;;4995114;28;20679;-63
2020/12/05 03:29:05;;;;;;;2.03;1.92;;;;;;;;;;4994928;28;20569;-63
2020/12/05 03:34:01;;;;;;;1.90;1.80;;;;;;;;;;4995487;28;20184;-63
2020/12/05 03:36:27;;;;;;;2.15;1.88;;;;;;;;;;4995890;28;20186;-62
2020/12/05 03:38:53;;;;;;;5.55;2.13;;;;;;;;;;4994799;28;20225;-62
2020/12/05 03:41:20;;;;;;;2.65;2.20;;;;;;;;;;4994751;28;20194;-62
2020/12/05 03:43:46;;;;;;;4.18;3.88;;;;;;;;;;4994879;28;20265;-63
2020/12/05 03:46:12;;;;;;;2.70;2.53;;;;;;;;;;4994540;28;20301;-62
2020/12/05 03:48:38;;;;;;;1.98;1.88;;;;;;;;;;4993492;28;20918;-63
2020/12/05 03:51:04;;;;;;;1.63;1.63;;;;;;;;;;4994287;28;20191;-61
2020/12/05 03:53:30;;;;;;;1.25;1.08;;;;;;;;;;4994520;28;20181;-63
2020/12/05 03:55:56;;;;;;;2.00;1.83;;;;;;;;;;4994535;28;20639;-64
2020/12/05 03:58:22;;;;;;;1.95;1.85;;;;;;;;;;4994480;28;20410;-65
2020/12/05 04:00:48;;;;;;;1.25;1.25;;;;;;;;;;4994055;28;20751;-65
2020/12/05 04:03:14;;;;;;;1.67;1.58;;;;;;;;;;4994416;28;20650;-62
2020/12/05 04:05:40;;;;;;;0.70;0.70;;;;;;;;;;4994321;28;20630;-65
2020/12/05 04:08:07;;;;;;;3.08;2.95;;;;;;;;;;4994227;28;20193;-61
2020/12/05 04:10:33;;;;;;;1.83;1.73;;;;;;;;;;4993954;28;20194;-65
2020/12/05 04:12:59;;;;;;;2.53;2.33;;;;;;;;;;4994243;28;20542;-64
2020/12/05 04:15:25;;;;;;;2.60;1.77;;;;;;;;;;4994255;28;20181;-64
2020/12/05 04:17:50;;;;;;;1.17;1.17;;;;;;;;;;4993247;28;20170;-64
2020/12/05 04:20:16;;;;;;;3.30;3.17;;;;;;;;;;4993456;28;20955;-61
2020/12/05 04:22:43;;;;;;;0.70;0.70;;;;;;;;;;4993932;28;20492;-61
2020/12/05 04:25:08;;;;;;;3.33;2.33;;;;;;;;;;4993874;28;20209;-62
2020/12/05 04:27:34;;;;;;;1.43;1.40;;;;;;;;;;4993967;28;20205;-62
2020/12/05 04:30:01;;;;;;;2.13;2.05;;;;;;;;;;4993539;28;20437;-65
2020/12/05 04:32:27;;;;;;;3.47;2.28;;;;;;;;;;4993898;28;20242;-62
2020/12/05 04:34:53;;;;;;;2.17;2.17;;;;;;;;;;4993747;28;20638;-64
2020/12/05 04:37:19;;;;;;;1.77;1.67;;;;;;;;;;4993657;28;20409;-62
2020/12/05 04:39:45;;;;;;;1.30;1.30;;;;;;;;;;4993492;28;20274;-62
2020/12/05 04:42:11;;;;;;;1.45;1.38;;;;;;;;;;4992395;28;20182;-62
2020/12/05 04:44:38;;;;;;;1.05;0.95;;;;;;;;;;4993707;28;20210;-63
2020/12/05 04:47:04;;;;;;;0.65;0.65;;;;;;;;;;4993508;28;20202;-62
2020/12/05 04:49:30;;;;;;;1.65;1.55;;;;;;;;;;4992010;28;20225;-62
2020/12/05 04:52:14;;;;;;;1.30;1.27;;;;;;;;;;4993338;28;20170;-63
2020/12/05 04:54:42;;;;;;;0.90;0.90;;;;;;;;;;4993543;28;20170;-62
2020/12/05 04:57:09;;;;;;;0.95;0.95;;;;;;;;;;4992657;28;20327;-63
2020/12/05 04:59:35;;;;;;;2.40;2.30;;;;;;;;;;4993071;28;20205;-63
2020/12/05 05:02:04;;;;;;;1.80;1.70;;;;;;;;;;4993116;28;20171;-64
2020/12/05 05:04:30;;;;;;;2.00;1.95;;;;;;;;;;4993306;28;20273;-64
2020/12/05 05:07:05;;;;;;;2.38;2.17;;;;;;;;;;4993105;28;20654;-65
2020/12/05 05:09:31;;;;;;;2.25;1.63;;;;;;;;;;4992866;28;20677;-64
2020/12/05 05:11:58;;;;;;;2.17;2.08;;;;;;;;;;4993303;28;20186;-65
2020/12/05 05:14:33;;;;;;;1.23;1.23;;;;;;;;;;4993344;28;20182;-65
2020/12/05 05:17:03;;;;;;;1.30;1.30;;;;;;;;;;4993071;28;20592;-65
2020/12/05 05:19:29;;;;;;;1.67;1.58;;;;;;;;;;4992638;28;20197;-64
2020/12/05 05:21:55;;;;;;;2.10;2.00;;;;;;;;;;4992856;28;20178;-65
2020/12/05 05:24:22;;;;;;;1.13;1.13;;;;;;;;;;4992976;28;20940;-65
2020/12/05 05:27:07;;;;;;;1.30;1.30;;;;;;;;;;4992981;28;20709;-64
2020/12/05 05:29:36;;;;;;;2.40;2.30;;;;;;;;;;4992086;28;20593;-65
2020/12/05 05:32:13;;;;;;;2.88;2.15;;;;;;;;;;4992544;28;20198;-65
2020/12/05 05:34:39;;;;;;;2.10;2.00;;;;;;;;;;5000286;28;20185;-65
2020/12/05 05:37:18;;;;;;;1.63;1.52;;;;;;;;;;5010828;28;20232;-64
2020/12/05 05:39:45;;;;;;;3.65;3.45;;;;;;;;;;5011702;28;20244;-64
2020/12/05 05:42:11;;;;;;;1.77;1.70;;;;;;;;;;5012054;28;20273;-64
2020/12/05 05:44:37;;;;;;;2.63;2.42;;;;;;;;;;5012150;28;20248;-64
2020/12/05 05:47:03;;;;;;;1.67;1.15;;;;;;;;;;5011886;28;20197;-64
2020/12/05 05:49:30;;;;;;;2.92;2.08;;;;;;;;;;5011661;28;20279;-65
2020/12/05 05:51:57;;;;;;;5.47;2.05;;;;;;;;;;5025598;28;20166;-64
2020/12/05 05:54:28;;;;;;;1.85;1.75;;;;;;;;;;5026690;28;20189;-65
2020/12/05 05:56:58;;;;;;;0.80;0.80;;;;;;;;;;5025936;28;20224;-65
2020/12/05 05:59:26;;;;;;;0.93;0.90;;;;;;;;;;5025860;28;20250;-64
2020/12/05 06:01:53;;;;;;;1.60;1.50;;;;;;;;;;5023714;28;20220;-65
2020/12/05 06:04:28;;;;;;;0.95;0.95;;;;;;;;;;5025144;28;20188;-65
2020/12/05 06:06:54;;;;;;;0.68;0.68;;;;;;;;;;5024153;28;20200;-64
2020/12/05 06:09:24;;;;;;;0.93;0.93;;;;;;;;;;5024289;28;20216;-65
2020/12/05 06:11:55;;;;;;;1.55;1.52;;;;;;;;;;5023712;28;20176;-64
2020/12/05 06:14:21;;;;;;;1.00;1.00;;;;;;;;;;5023516;28;20228;-65
2020/12/05 06:16:51;;;;;;;0.95;0.95;;;;;;;;;;5023615;28;20257;-65
2020/12/05 06:19:17;;;;;;;1.83;1.75;;;;;;;;;;5022944;28;20644;-65
2020/12/05 06:21:44;;;;;;;1.65;1.55;;;;;;;;;;5022579;28;20177;-65
2020/12/05 06:24:13;;;;;;;1.45;1.35;;;;;;;;;;5022667;28;20177;-65
2020/12/05 06:26:40;;;;;;;1.13;1.02;;;;;;;;;;5021929;28;20220;-64
2020/12/05 06:29:07;;;;;;;1.10;1.10;;;;;;;;;;5018216;28;20181;-64
2020/12/05 06:31:40;;;;;;;0.73;0.73;;;;;;;;;;5011633;28;20166;-64
2020/12/05 06:34:06;;;;;;;0.63;0.63;;;;;;;;;;5011704;28;20235;-64
2020/12/05 06:36:32;;;;;;;1.40;1.27;;;;;;;;;;5011774;28;20178;-64
2020/12/05 06:39:07;;;;;;;1.33;1.33;;;;;;;;;;5010814;28;20178;-65
2020/12/05 06:41:34;;;;;;;1.30;1.30;;;;;;;;;;5014697;28;20172;-65
2020/12/05 06:44:16;;;;;;;0.98;0.98;;;;;;;;;;5016809;28;20205;-64
2020/12/05 06:46:45;;;;;;;0.90;0.90;;;;;;;;;;5015189;28;20233;-64
2020/12/05 06:49:11;;;;;;;2.00;1.90;;;;;;;;;;5015019;28;20181;-64
2020/12/05 06:51:37;;;;;;;0.65;0.65;;;;;;;;;;5015113;28;20648;-64
2020/12/05 06:54:03;;;;;;;1.27;1.17;;;;;;;;;;5015066;28;20173;-64
2020/12/05 06:56:29;;;;;;;0.50;0.50;;;;;;;;;;5015024;28;20988;-64
2020/12/05 06:58:56;;;;;;;1.50;1.03;;;;;;;;;;5014769;28;20458;-64
2020/12/05 07:01:29;;;;;;;1.25;1.25;;;;;;;;;;5014707;28;20474;-64
2020/12/05 07:03:55;;;;;;;1.10;1.10;;;;;;;;;;5014879;28;20170;-64
2020/12/05 07:06:25;;;;;;;0.93;0.90;;;;;;;;;;5014646;28;20263;-64
2020/12/05 07:08:52;;;;;;;0.60;0.60;;;;;;;;;;5014687;28;20478;-65
2020/12/05 07:11:18;;;;;;;0.57;0.57;;;;;;;;;;5014627;28;20197;-64
2020/12/05 07:13:48;;;;;;;1.48;0.90;;;;;;;;;;5015974;28;20301;-65
2020/12/05 07:16:15;;;;;;;1.05;0.90;;;;;;;;;;5018542;28;20176;-65
2020/12/05 07:18:48;;;;;;;1.00;1.00;;;;;;;;;;5018419;28;20196;-65
2020/12/05 07:21:15;;;;;;;0.60;0.60;;;;;;;;;;5016252;28;20236;-65
2020/12/05 07:23:41;;;;;;;0.70;0.70;;;;;;;;;;5017599;28;20178;-62
2020/12/05 07:26:07;;;;;;;0.90;0.90;;;;;;;;;;5018403;28;20197;-65
2020/12/05 07:28:34;;;;;;;2.13;1.63;;;;;;;;;;5016427;28;20162;-65
2020/12/05 07:31:00;;;;;;;0.90;0.90;;;;;;;;;;5016934;28;20193;-65
2020/12/05 07:33:27;;;;;;;2.45;2.00;;;;;;;;;;5017323;28;20199;-64
2020/12/05 07:35:57;;;;;;;1.20;1.20;;;;;;;;;;5017477;28;20253;-62
2020/12/05 07:38:23;;;;;;;0.63;0.63;;;;;;;;;;5017556;28;20178;-63
2020/12/05 07:40:49;;;;;;;0.77;0.77;;;;;;;;;;5017194;28;20197;-65
2020/12/05 07:43:17;;;;;;;1.10;1.10;;;;;;;;;;5017647;28;20182;-65
2020/12/05 07:45:43;;;;;;;1.90;1.80;;;;;;;;;;5013949;28;20280;-65
2020/12/05 07:48:12;;;;;;;0.98;0.75;;;;;;;;;;5015136;28;20174;-62
2020/12/05 07:50:39;;;;;;;0.63;0.63;;;;;;;;;;5013758;28;20189;-65
2020/12/05 07:53:05;;;;;;;1.23;1.23;;;;;;;;;;5013806;28;20165;-65
2020/12/05 07:55:31;;;;;;;0.60;0.60;;;;;;;;;;5013989;28;20184;-64
2020/12/05 07:57:57;;;;;;;1.07;1.00;;;;;;;;;;5013838;28;20178;-64
2020/12/05 08:00:23;;;;;;;0.60;0.60;;;;;;;;;;5032974;23;20534;-65
2020/12/05 08:02:52;;;;;;;0.82;0.82;;;;;;;;;;5032524;28;20564;-62
2020/12/05 08:05:35;;;;;;;0.60;0.60;;;;;;;;;;5033132;28;20197;-63
2020/12/05 08:08:05;;;;;;;0.80;0.80;;;;;;;;;;5033154;28;20216;-63
2020/12/05 08:10:32;;;;;;;1.15;1.15;;;;;;;;;;5028202;28;20190;-64
2020/12/05 08:13:06;;;;;;;0.70;0.70;;;;;;;;;;5031411;28;20169;-63
2020/12/05 08:15:34;;;;;;;0.90;0.90;;;;;;;;;;5052842;28;20210;-65
2020/12/05 08:18:01;;;;;;;1.20;1.20;;;;;;;;;;5032470;28;20177;-65
2020/12/05 08:20:28;;;;;;;0.60;0.60;;;;;;;;;;5023676;28;20198;-63
2020/12/05 08:22:54;;;;;;;0.75;0.75;;;;;;;;;;5015010;28;20197;-64
2020/12/05 08:25:20;;;;;;;1.03;1.03;;;;;;;;;;5031151;28;20185;-65
2020/12/05 08:27:46;;;;;;;0.70;0.70;;;;;;;;;;5015552;28;20761;-65
2020/12/05 08:30:13;;;;;;;0.70;0.70;;;;;;;;;;5012827;28;20186;-65
2020/12/05 08:32:40;;;;;;;0.63;0.63;;;;;;;;;;5013245;28;20526;-65
2020/12/05 08:35:08;;;;;;;1.08;1.08;;;;;;;;;;5024913;28;20172;-67
2020/12/05 08:37:34;;;;;;;1.35;0.85;;;;;;;;;;5011649;28;20174;-65
2020/12/05 08:40:00;;;;;;;0.50;0.50;;;;;;;;;;5031236;28;20235;-66
2020/12/05 08:42:26;;;;;;;1.55;1.50;;;;;;;;;;5052097;28;20184;-65
2020/12/05 08:44:53;;;;;;;0.70;0.70;;;;;;;;;;5046564;28;20230;-62
2020/12/05 08:47:19;;;;;;;0.60;0.60;;;;;;;;;;5031229;28;20288;-65
2020/12/05 08:49:48;;;;;;;0.82;0.82;;;;;;;;;;5033206;28;20211;-64
2020/12/05 08:52:15;;;;;;;0.60;0.60;;;;;;;;;;5027467;28;20177;-65
2020/12/05 08:54:47;;;;;;;0.68;0.68;;;;;;;;;;5023593;28;20168;-65
2020/12/05 08:57:14;;;;;;;0.73;0.73;;;;;;;;;;5021128;28;20212;-65
2020/12/05 08:59:40;;;;;;;0.80;0.80;;;;;;;;;;5031858;28;20179;-66
2020/12/05 09:02:07;;;;;;;0.90;0.90;;;;;;;;;;5018054;28;20600;-65
2020/12/05 09:04:36;;;;;;;0.70;0.70;;;;;;;;;;5012133;28;20185;-65
2020/12/05 09:07:08;;;;;;;0.82;0.70;;;;;;;;;;5027843;28;20208;-65
2020/12/05 09:09:34;;;;;;;0.50;0.50;;;;;;;;;;5023232;28;20549;-65
2020/12/05 09:12:08;;;;;;;1.40;1.30;;;;;;;;;;5020707;28;20182;-62
2020/12/05 09:14:34;;;;;;;0.73;0.73;;;;;;;;;;5023040;28;20184;-60
2020/12/05 09:17:00;;;;;;;0.98;0.98;;;;;;;;;;5020845;28;20173;-63
2020/12/05 09:19:31;;;;;;;1.30;1.25;;;;;;;;;;5019657;28;20213;-63
2020/12/05 09:21:57;;;;;;;0.90;0.90;;;;;;;;;;5021586;28;20549;-63
2020/12/05 09:24:24;;;;;;;1.10;1.10;;;;;;;;;;5021559;28;20645;-60
2020/12/05 09:26:53;;;;;;;0.63;0.63;;;;;;;;;;5021094;28;20296;-65
2020/12/05 09:29:19;;;;;;;0.77;0.77;;;;;;;;;;5020337;28;20165;-64
2020/12/05 09:31:52;;;;;;;1.52;1.42;;;;;;;;;;5027433;28;20208;-65
2020/12/05 09:34:35;;;;;;;1.00;1.00;;;;;;;;;;5026248;28;20271;-65
2020/12/05 09:37:08;;;;;;;0.77;0.77;;;;;;;;;;5031552;28;20174;-64
2020/12/05 09:39:34;;;;;;;1.48;0.95;;;;;;;;;;5023257;28;20188;-62
2020/12/05 09:42:00;;;;;;;0.90;0.90;;;;;;;;;;5011007;28;20186;-65
2020/12/05 09:44:26;;;;;;;0.83;0.83;;;;;;;;;;5011379;28;20174;-64
2020/12/05 09:46:52;;;;;;;1.73;1.73;;;;;;;;;;5017344;28;20495;-65
2020/12/05 09:49:18;;;;;;;1.15;1.15;;;;;;;;;;5029557;28;20276;-65
2020/12/05 09:51:44;;;;;;;2.87;2.47;;;;;;;;;;5030467;28;20200;-65
2020/12/05 09:54:10;;;;;;;4.47;3.40;;;;;;;;;;5030991;28;20400;-64
2020/12/05 09:56:36;;;;;;;0.90;0.90;;;;;;;;;;5031184;28;20420;-64
2020/12/05 09:59:02;;;;;;;2.80;2.45;;;;;;;;;;5030654;28;20446;-65
2020/12/05 10:01:29;;;;;;;4.05;3.75;;;;;;;;;;5031046;28;20219;-65
2020/12/05 10:03:55;;;;;;;1.45;1.35;;;;;;;;;;5030706;28;20173;-64
2020/12/05 10:06:21;;;;;;;1.25;1.23;;;;;;;;;;5029877;28;20676;-64
2020/12/05 10:08:47;;;;;;;1.58;1.48;;;;;;;;;;5031178;28;20173;-63
2020/12/05 10:11:14;;;;;;;2.60;2.40;;;;;;;;;;5030829;28;20184;-65
2020/12/05 10:13:40;;;;;;;1.27;1.27;;;;;;;;;;5029552;28;20549;-65
2020/12/05 10:16:06;;;;;;;1.65;1.65;;;;;;;;;;5032490;28;20186;-64
2020/12/05 10:18:32;;;;;;;1.30;1.30;;;;;;;;;;5035090;28;20164;-65
2020/12/05 10:20:58;;;;;;;1.00;1.00;;;;;;;;;;5033571;28;20678;-66
2020/12/05 10:23:24;;;;;;;0.93;0.93;;;;;;;;;;5034680;28;20489;-65
2020/12/05 10:25:50;;;;;;;2.17;2.07;;;;;;;;;;5034550;28;20546;-64
2020/12/05 10:28:16;;;;;;;1.00;1.00;;;;;;;;;;5034898;28;20412;-64
2020/12/05 10:30:42;;;;;;;1.52;1.42;;;;;;;;;;5034596;28;20556;-65
2020/12/05 10:33:08;;;;;;;3.13;3.03;;;;;;;;;;5034794;28;20169;-64
2020/12/05 10:35:34;;;;;;;0.85;0.85;;;;;;;;;;5034263;28;20169;-65
2020/12/05 10:38:00;;;;;;;2.63;2.43;;;;;;;;;;5034088;28;20180;-64
2020/12/05 10:40:26;;;;;;;1.63;1.52;;;;;;;;;;5034458;28;20423;-63
2020/12/05 10:42:52;;;;;;;2.60;2.40;;;;;;;;;;5034984;28;20169;-64
2020/12/05 10:45:18;;;;;;;1.87;1.77;;;;;;;;;;5034649;28;20165;-65
2020/12/05 10:47:44;;;;;;;2.53;2.42;;;;;;;;;;5033752;28;20424;-65
2020/12/05 10:50:10;;;;;;;1.00;1.00;;;;;;;;;;5034126;28;20224;-65
2020/12/05 10:52:36;;;;;;;1.95;1.95;;;;;;;;;;5034312;28;20177;-65
2020/12/05 10:55:02;;;;;;;2.90;2.70;;;;;;;;;;5034472;28;20184;-65
2020/12/05 10:57:28;;;;;;;4.05;3.85;;;;;;;;;;5034474;28;20399;-65
2020/12/05 10:59:54;;;;;;;1.05;1.05;;;;;;;;;;5033380;28;20568;-65
2020/12/05 11:02:20;;;;;;;1.40;1.40;;;;;;;;;;5034218;28;20177;-65
2020/12/05 11:04:46;;;;;;;1.98;1.85;;;;;;;;;;5034203;28;20192;-65
2020/12/05 11:07:12;;;;;;;1.27;1.27;;;;;;;;;;5032746;28;20194;-65
2020/12/05 11:09:39;;;;;;;1.55;1.45;;;;;;;;;;5033650;28;20415;-65
2020/12/05 11:12:05;;;;;;;1.08;1.08;;;;;;;;;;5033676;28;20173;-64
2020/12/05 11:14:31;;;;;;;1.40;1.30;;;;;;;;;;5034301;28;20177;-66
2020/12/05 11:16:57;;;;;;;2.97;2.77;;;;;;;;;;5034030;28;20420;-65
2020/12/05 11:19:23;;;;;;;2.83;2.58;;;;;;;;;;5033657;28;20657;-65
2020/12/05 11:21:49;;;;;;;1.30;1.27;;;;;;;;;;5033364;28;20229;-65
2020/12/05 11:24:15;;;;;;;1.77;1.67;;;;;;;;;;5034007;28;20403;-63
2020/12/05 11:26:41;;;;;;;2.05;1.95;;;;;;;;;;5034244;28;20468;-63
2020/12/05 11:29:07;;;;;;;1.95;1.85;;;;;;;;;;5033494;28;20169;-64
2020/12/05 11:31:33;;;;;;;3.07;2.90;;;;;;;;;;5033598;28;20421;-65
2020/12/05 11:33:59;;;;;;;1.88;1.77;;;;;;;;;;5033175;28;20408;-65
2020/12/05 11:36:25;;;;;;;1.60;1.23;;;;;;;;;;5033313;28;20178;-64
2020/12/05 11:38:52;;;;;;;1.50;1.50;;;;;;;;;;5032100;28;20652;-63
2020/12/05 11:41:17;;;;;;;1.92;1.83;;;;;;;;;;5032216;28;20220;-64
2020/12/05 11:43:44;;;;;;;3.92;3.63;;;;;;;;;;5031730;28;20324;-65
2020/12/05 11:46:12;;;;;;;3.08;2.97;;;;;;;;;;5033563;28;20208;-65
2020/12/05 11:48:38;;;;;;;2.88;1.52;;;;;;;;;;5015548;28;20685;-65
2020/12/05 11:51:04;;;;;;;3.03;2.90;;;;;;;;;;5033406;28;20197;-65
2020/12/05 11:53:30;;;;;;;2.90;2.70;;;;;;;;;;5033821;28;20447;-65
2020/12/05 11:55:56;;;;;;;1.30;1.30;;;;;;;;;;5032809;28;20419;-65
2020/12/05 11:58:22;;;;;;;2.10;2.10;;;;;;;;;;5032062;28;20177;-64
2020/12/05 12:00:48;;;;;;;1.97;1.80;;;;;;;;;;5032732;28;20610;-65
2020/12/05 12:03:14;;;;;;;3.10;2.90;;;;;;;;;;5033350;28;20449;-66
2020/12/05 12:05:40;;;;;;;2.58;2.47;;;;;;;;;;5032544;28;20424;-65
2020/12/05 12:08:06;;;;;;;2.43;1.13;;;;;;;;;;5032990;28;20538;-65
2020/12/05 12:10:32;;;;;;;2.50;2.38;;;;;;;;;;5032718;28;21081;-66
2020/12/05 12:12:58;;;;;;;1.98;1.88;;;;;;;;;;5032959;28;20169;-65
2020/12/05 12:15:24;;;;;;;4.20;2.03;;;;;;;;;;5032993;28;20178;-65
2020/12/05 12:17:50;;;;;;;1.87;1.00;;;;;;;;;;5032567;28;20411;-66
2020/12/05 12:20:16;;;;;;;1.33;1.27;;;;;;;;;;5032483;28;20431;-66
2020/12/05 12:22:42;;;;;;;1.37;1.37;;;;;;;;;;5033035;28;20906;-65
2020/12/05 12:25:08;;;;;;;0.90;0.90;;;;;;;;;;5032731;28;20466;-65
2020/12/05 12:27:34;;;;;;;2.03;1.42;;;;;;;;;;5032380;28;20216;-65
2020/12/05 12:30:00;;;;;;;1.70;1.63;;;;;;;;;;5032254;28;20201;-64
2020/12/05 12:32:26;;;;;;;0.80;0.80;;;;;;;;;;5032772;28;20166;-66
2020/12/05 12:34:52;;;;;;;2.60;2.35;;;;;;;;;;5032557;28;20205;-66
2020/12/05 12:37:21;;;;;;;1.10;1.00;;;;;;;;;;5032484;28;20174;-66
2020/12/05 12:39:47;;;;;;;1.52;1.42;;;;;;;;;;5030571;28;20693;-66
2020/12/05 12:42:13;;;;;;;4.72;3.03;;;;;;;;;;5032262;28;20698;-66
2020/12/05 12:44:39;;;;;;;1.73;1.63;;;;;;;;;;5032369;28;20178;-65
2020/12/05 12:49:37;;;;;;;2.23;2.13;;;;;;;;;;5031891;28;20645;-65
2020/12/05 12:52:07;;;;;;;3.10;2.90;;;;;;;;;;5031984;28;20409;-65
2020/12/05 12:54:33;;;;;;;2.47;2.05;;;;;;;;;;5032373;28;20169;-66
2020/12/05 12:57:00;;;;;;;2.03;1.92;;;;;;;;;;5032292;28;20183;-65
2020/12/05 12:59:26;;;;;;;2.28;1.55;;;;;;;;;;5031859;28;20181;-66
2020/12/05 13:01:53;;;;;;;1.63;1.63;;;;;;;;;;5031037;28;20276;-65
2020/12/05 13:04:19;;;;;;;1.23;1.23;;;;;;;;;;5032157;28;20173;-65
2020/12/05 13:06:45;;;;;;;0.90;0.90;;;;;;;;;;5031918;28;20617;-65
2020/12/05 13:09:11;;;;;;;2.75;2.50;;;;;;;;;;5031840;28;20180;-65
2020/12/05 13:11:37;;;;;;;1.20;1.20;;;;;;;;;;5031960;28;20200;-66
2020/12/05 13:14:03;;;;;;;1.60;1.50;;;;;;;;;;5031176;28;20169;-65
2020/12/05 13:16:29;;;;;;;1.03;1.00;;;;;;;;;;5031559;28;20553;-66
2020/12/05 13:18:55;;;;;;;1.40;1.30;;;;;;;;;;5031390;28;20444;-65
2020/12/05 13:21:22;;;;;;;2.00;1.83;;;;;;;;;;5031724;28;20223;-66
2020/12/05 13:23:49;;;;;;;1.10;1.10;;;;;;;;;;5031168;28;20457;-65
2020/12/05 13:26:19;;;;;;;6.32;1.83;;;;;;;;;;5031402;28;20922;-65
2020/12/05 13:28:45;;;;;;;1.23;1.23;;;;;;;;;;5031423;28;20565;-64
2020/12/05 13:31:11;;;;;;;3.67;3.33;;;;;;;;;;5031651;28;20190;-65
2020/12/05 13:33:37;;;;;;;2.00;1.90;;;;;;;;;;5031569;28;20740;-65
2020/12/05 13:36:03;;;;;;;1.45;1.45;;;;;;;;;;5030920;28;20231;-65
2020/12/05 13:38:29;;;;;;;1.90;1.70;;;;;;;;;;5029927;28;20177;-65
2020/12/05 13:40:55;;;;;;;1.07;1.07;;;;;;;;;;5031251;28;20197;-65
2020/12/05 13:43:21;;;;;;;3.15;3.00;;;;;;;;;;5031562;28;20907;-64
2020/12/05 13:45:47;;;;;;;2.10;2.00;;;;;;;;;;5031211;28;20272;-64
2020/12/05 13:48:13;;;;;;;1.60;1.60;;;;;;;;;;5031122;28;20404;-66
2020/12/05 13:50:39;;;;;;;2.30;2.20;;;;;;;;;;5030484;28;20437;-67
2020/12/05 13:53:05;;;;;;;1.65;1.55;;;;;;;;;;5031474;28;20410;-66
2020/12/05 13:55:31;;;;;;;2.20;2.00;;;;;;;;;;5031879;28;20173;-65
2020/12/05 13:57:58;;;;;;;3.10;2.90;;;;;;;;;;5031062;28;20407;-64
2020/12/05 14:00:25;;;;;;;1.05;1.05;;;;;;;;;;5050466;23;20618;-65
2020/12/05 14:02:51;;;;;;;1.45;1.35;;;;;;;;;;5029182;28;20744;-64
2020/12/05 14:05:17;;;;;;;3.25;3.05;;;;;;;;;;5029959;28;20209;-64
2020/12/05 14:07:43;;;;;;;2.80;2.28;;;;;;;;;;5030823;28;20236;-64
2020/12/05 14:10:09;;;;;;;2.15;2.05;;;;;;;;;;5029126;28;20224;-64
2020/12/05 14:12:35;;;;;;;1.57;1.50;;;;;;;;;;5011066;28;20169;-64
2020/12/05 14:15:01;;;;;;;1.20;1.20;;;;;;;;;;5011048;28;20443;-65
2020/12/05 14:17:28;;;;;;;1.30;1.30;;;;;;;;;;5011103;28;20713;-64
2020/12/05 14:19:54;;;;;;;1.63;1.52;;;;;;;;;;5010558;28;20649;-64
2020/12/05 14:22:20;;;;;;;4.50;2.47;;;;;;;;;;5011046;28;20332;-65
2020/12/05 14:24:46;;;;;;;1.75;1.65;;;;;;;;;;5011152;28;20213;-64
2020/12/05 14:27:12;;;;;;;0.95;0.93;;;;;;;;;;5010923;28;20232;-65
2020/12/05 14:29:38;;;;;;;1.90;1.90;;;;;;;;;;5010754;28;20664;-64
2020/12/05 14:32:04;;;;;;;2.05;1.95;;;;;;;;;;5009297;28;20426;-64
2020/12/05 14:34:30;;;;;;;1.60;1.50;;;;;;;;;;5011169;28;20179;-64
2020/12/05 14:36:56;;;;;;;1.75;1.65;;;;;;;;;;5011407;28;20786;-64
2020/12/05 14:39:22;;;;;;;1.55;1.45;;;;;;;;;;5010961;28;20676;-64
2020/12/05 14:41:48;;;;;;;3.08;2.53;;;;;;;;;;5010568;28;20205;-65
2020/12/05 14:44:15;;;;;;;1.98;1.75;;;;;;;;;;5011201;28;20174;-64
2020/12/05 14:46:41;;;;;;;1.75;1.67;;;;;;;;;;5011278;28;20289;-64